Portada
METAR-TAF:

METAR-TAF

Aeroports :

Albury, Austràlia

latitud: 36-04-06S, longitud: 146-57-30E, altitud: 164 m

Observació

L'informe es va fer fa 38 minuts, a les 19:00 UTC
Vent calma
Temperatura 15°C
Humitat 100%
Pressió 1014 hPa
Visibilitat 10 km o més
Cel cobert a una alçada de 9100 ft

METAR: YMAY 161900Z AUTO 00000KT 9999 // OVC091 15/15 Q1014

Hora: 06:38 (19:38 UTC)


TAF: manca

Observacions i pronòstics meteorològics de més de 4000 aeroports (METAR i TAF).

Les estacions disponibles són els punts grocs i vermells al mapa.

Posi el ratolí al punt desitjat per veure el nom de l'estació.

Feu clic per veure les observacions i els pronòstics meteorològics.

Per canviar el mapa: feu clic els botons verds amb una creu de color negre per apropar; al botó verd amb un guió per allunyar la imatge; o en les fletxes verdes per a mapes adjacents.


METAR-TAF: